createdAt,value
2019-04-03T00:00:53.911Z,0
2019-04-03T00:01:53.953Z,0
2019-04-03T00:02:54.089Z,0
2019-04-03T00:03:53.686Z,0
2019-04-03T00:04:53.973Z,0
2019-04-03T00:05:53.957Z,0
2019-04-03T00:06:53.769Z,0
2019-04-03T00:07:54.042Z,0
2019-04-03T00:08:53.902Z,0
2019-04-03T00:09:54.056Z,0
2019-04-03T00:10:53.963Z,0
2019-04-03T00:11:53.630Z,0
2019-04-03T00:12:53.988Z,0
2019-04-03T00:13:53.921Z,0
2019-04-03T00:14:53.859Z,0
2019-04-03T00:15:54.745Z,0
2019-04-03T00:16:55.550Z,0
2019-04-03T00:17:55.648Z,0
2019-04-03T00:18:56.498Z,0
2019-04-03T00:19:56.957Z,0
2019-04-03T00:20:56.271Z,0
2019-04-03T00:21:55.777Z,0
2019-04-03T00:22:58.713Z,0
2019-04-03T00:23:55.322Z,0
2019-04-03T00:24:55.085Z,0
2019-04-03T00:25:55.086Z,0
2019-04-03T00:26:54.998Z,0
2019-04-03T00:27:55.376Z,0
2019-04-03T00:28:54.991Z,0
2019-04-03T00:29:56.762Z,0
2019-04-03T00:30:55.654Z,0
2019-04-03T00:31:55.756Z,0
2019-04-03T00:32:55.905Z,0
2019-04-03T00:33:55.686Z,0
2019-04-03T00:34:55.683Z,0
2019-04-03T00:35:55.620Z,0
2019-04-03T00:36:55.880Z,0
2019-04-03T00:37:55.346Z,0
2019-04-03T00:38:56.514Z,0
2019-04-03T00:39:56.347Z,0
2019-04-03T00:40:56.437Z,0
2019-04-03T00:41:54.591Z,0
2019-04-03T00:42:54.536Z,0
2019-04-03T00:43:54.377Z,0
2019-04-03T00:44:54.654Z,0
2019-04-03T00:45:56.404Z,0
2019-04-03T00:46:53.786Z,0
2019-04-03T00:47:55.535Z,0
2019-04-03T00:48:55.164Z,0
2019-04-03T00:49:56.075Z,0
2019-04-03T00:50:56.165Z,0
2019-04-03T00:51:53.364Z,0
2019-04-03T00:52:53.400Z,0
2019-04-03T00:53:53.591Z,0
2019-04-03T00:54:54.759Z,0
2019-04-03T00:55:54.732Z,0
2019-04-03T00:56:53.933Z,0
2019-04-03T00:57:54.600Z,0
2019-04-03T00:58:55.286Z,0
2019-04-03T00:59:54.664Z,0
2019-04-03T01:00:54.694Z,0
2019-04-03T01:01:54.722Z,0
2019-04-03T01:02:53.527Z,0
2019-04-03T01:03:53.465Z,0
2019-04-03T01:04:53.592Z,0
2019-04-03T01:05:53.508Z,0
2019-04-03T01:06:53.663Z,0
2019-04-03T01:07:53.591Z,0
2019-04-03T01:08:53.491Z,0
2019-04-03T01:09:53.228Z,0
2019-04-03T01:10:53.485Z,0
2019-04-03T01:11:53.494Z,0
2019-04-03T01:12:53.456Z,0
2019-04-03T01:13:53.449Z,0
2019-04-03T01:14:53.453Z,0
2019-04-03T01:15:53.450Z,0
2019-04-03T01:16:53.433Z,0
2019-04-03T01:17:53.264Z,0
2019-04-03T01:18:53.206Z,0
2019-04-03T01:19:53.552Z,0
2019-04-03T01:20:53.344Z,0
2019-04-03T01:21:53.447Z,0
2019-04-03T01:22:53.387Z,0
2019-04-03T01:23:53.519Z,0
2019-04-03T01:24:53.521Z,0
2019-04-03T01:25:53.375Z,0
2019-04-03T01:26:53.498Z,0
2019-04-03T01:27:53.510Z,0
2019-04-03T01:28:53.344Z,0
2019-04-03T01:29:53.347Z,0
2019-04-03T01:30:54.169Z,0
2019-04-03T01:31:54.672Z,0
2019-04-03T01:32:55.968Z,0
2019-04-03T01:33:55.922Z,0
2019-04-03T01:34:55.011Z,0
2019-04-03T01:35:55.161Z,0
2019-04-03T01:36:54.991Z,0
2019-04-03T01:37:54.849Z,0
2019-04-03T01:38:54.961Z,0
2019-04-03T01:39:55.197Z,0
2019-04-03T01:40:55.182Z,0
2019-04-03T01:41:55.940Z,0
2019-04-03T01:42:55.651Z,0
2019-04-03T01:43:56.040Z,0
2019-04-03T01:44:54.974Z,0
2019-04-03T01:45:53.238Z,0
2019-04-03T01:46:53.403Z,0
2019-04-03T01:47:53.362Z,0
2019-04-03T01:48:53.200Z,0
2019-04-03T01:49:53.302Z,0
2019-04-03T01:50:53.197Z,0
2019-04-03T01:51:53.212Z,0
2019-04-03T01:52:52.934Z,0
2019-04-03T01:53:53.220Z,0
2019-04-03T01:54:53.164Z,0
2019-04-03T01:55:53.287Z,0
2019-04-03T01:56:52.898Z,0
2019-04-03T01:57:53.377Z,0
2019-04-03T01:58:52.888Z,0
2019-04-03T01:59:53.226Z,0
2019-04-03T02:00:53.118Z,0
2019-04-03T02:01:53.328Z,0
2019-04-03T02:02:54.303Z,0
2019-04-03T02:03:53.101Z,0
2019-04-03T02:04:53.231Z,0
2019-04-03T02:05:53.789Z,0
2019-04-03T02:06:53.575Z,0
2019-04-03T02:07:54.530Z,0
2019-04-03T02:08:55.030Z,0
2019-04-03T02:09:55.947Z,0
2019-04-03T02:10:55.655Z,0
2019-04-03T02:11:54.479Z,0
2019-04-03T02:12:55.453Z,0
2019-04-03T02:13:55.859Z,0
2019-04-03T02:14:55.797Z,0
2019-04-03T02:15:54.895Z,0
2019-04-03T02:16:55.806Z,0
2019-04-03T02:17:54.530Z,0
2019-04-03T02:18:53.533Z,0
2019-04-03T02:19:53.169Z,0
2019-04-03T02:20:53.086Z,0
2019-04-03T02:21:53.038Z,0
2019-04-03T02:22:53.065Z,0
2019-04-03T02:23:53.065Z,0
2019-04-03T02:24:53.254Z,0
2019-04-03T02:25:53.012Z,0
2019-04-03T02:26:53.059Z,0
2019-04-03T02:27:53.069Z,0
2019-04-03T02:28:53.037Z,0
2019-04-03T02:29:53.075Z,0
2019-04-03T02:30:56.122Z,0
2019-04-03T02:31:56.677Z,0
2019-04-03T02:32:56.268Z,0
2019-04-03T02:33:53.385Z,0
2019-04-03T02:34:53.108Z,0
2019-04-03T02:35:52.902Z,0
2019-04-03T02:36:54.783Z,0
2019-04-03T02:37:56.171Z,0
2019-04-03T02:38:55.841Z,0
2019-04-03T02:39:52.928Z,0
2019-04-03T02:40:52.973Z,0
2019-04-03T02:41:52.583Z,0
2019-04-03T02:42:52.902Z,0
2019-04-03T02:43:56.643Z,0
2019-04-03T02:44:56.557Z,0
2019-04-03T02:45:55.486Z,0
2019-04-03T02:46:53.147Z,0
2019-04-03T02:47:53.012Z,0
2019-04-03T02:48:52.890Z,0
2019-04-03T02:49:53.755Z,0
2019-04-03T02:50:56.814Z,0
2019-04-03T02:51:56.955Z,0
2019-04-03T02:52:56.424Z,0
2019-04-03T02:53:52.802Z,0
2019-04-03T02:54:52.893Z,0
2019-04-03T02:55:52.538Z,0
2019-04-03T02:56:55.386Z,0
2019-04-03T02:57:56.863Z,0
2019-04-03T02:58:56.172Z,0
2019-04-03T02:59:52.719Z,0
2019-04-03T03:00:53.002Z,0
2019-04-03T03:01:52.883Z,0
2019-04-03T03:02:55.294Z,0
2019-04-03T03:03:56.238Z,0
2019-04-03T03:04:56.946Z,0
2019-04-03T03:05:52.692Z,0
2019-04-03T03:06:52.869Z,0
2019-04-03T03:07:52.673Z,0
2019-04-03T03:08:52.700Z,0
2019-04-03T03:09:56.269Z,0
2019-04-03T03:10:56.172Z,0
2019-04-03T03:11:54.828Z,0
2019-04-03T03:12:52.677Z,0
2019-04-03T03:13:52.796Z,0
2019-04-03T03:14:52.985Z,0
2019-04-03T03:15:54.628Z,0
2019-04-03T03:16:56.912Z,0
2019-04-03T03:17:55.062Z,0
2019-04-03T03:18:53.164Z,0
2019-04-03T03:19:52.796Z,0
2019-04-03T03:20:52.852Z,0
2019-04-03T03:21:55.024Z,0
2019-04-03T03:22:56.814Z,0
2019-04-03T03:23:55.097Z,0
2019-04-03T03:24:52.325Z,0
2019-04-03T03:25:52.764Z,0
2019-04-03T03:26:52.812Z,0
2019-04-03T03:27:52.991Z,0
2019-04-03T03:28:55.997Z,0
2019-04-03T03:29:52.597Z,0
2019-04-03T03:31:12.749Z,0
2019-04-03T03:32:39.086Z,0
2019-04-03T03:33:09.562Z,0
2019-04-03T03:34:00.175Z,0
2019-04-03T03:35:45.175Z,0
2019-04-03T03:36:01.586Z,0
2019-04-03T03:37:06.021Z,0
2019-04-03T03:37:56.705Z,0
2019-04-03T03:38:57.326Z,0
2019-04-03T03:39:56.875Z,0
2019-04-03T03:40:59.003Z,0
2019-04-03T03:42:01.947Z,0
2019-04-03T03:42:56.956Z,0
2019-04-03T03:43:56.768Z,0
2019-04-03T03:44:57.120Z,0
2019-04-03T03:46:01.069Z,0
2019-04-03T03:46:59.305Z,0
2019-04-03T03:47:57.059Z,0
2019-04-03T03:48:56.428Z,0
2019-04-03T03:49:59.840Z,0
2019-04-03T03:51:01.136Z,0
2019-04-03T03:51:57.022Z,0
2019-04-03T03:52:57.124Z,0
2019-04-03T03:53:56.999Z,0
2019-04-03T03:55:00.197Z,0
2019-04-03T03:56:01.899Z,0
2019-04-03T03:56:57.153Z,0
2019-04-03T03:57:56.828Z,0
2019-04-03T03:58:56.928Z,0
2019-04-03T04:00:00.294Z,0
2019-04-03T04:01:06.333Z,0
2019-04-03T04:01:56.847Z,0
2019-04-03T04:02:56.945Z,0
2019-04-03T04:03:56.823Z,0
2019-04-03T04:04:58.257Z,0
2019-04-03T04:06:01.047Z,0
2019-04-03T04:06:57.504Z,0
2019-04-03T04:07:56.918Z,0
2019-04-03T04:08:56.505Z,0
2019-04-03T04:10:00.282Z,0
2019-04-03T04:11:01.043Z,0
2019-04-03T04:11:56.842Z,0
2019-04-03T04:12:57.013Z,0
2019-04-03T04:13:58.675Z,0
2019-04-03T04:15:00.708Z,0
2019-04-03T04:15:56.571Z,0
2019-04-03T04:16:55.962Z,0
2019-04-03T04:18:00.751Z,0
2019-04-03T04:19:01.065Z,0
2019-04-03T04:19:56.665Z,0
2019-04-03T04:20:56.567Z,0
2019-04-03T04:21:56.717Z,0
2019-04-03T04:23:00.944Z,0
2019-04-03T04:24:00.201Z,0
2019-04-03T04:24:57.101Z,0
2019-04-03T04:25:56.357Z,0
2019-04-03T04:27:00.806Z,0
2019-04-03T04:27:56.440Z,0
2019-04-03T04:28:56.338Z,0
2019-04-03T04:29:56.327Z,0
2019-04-03T04:30:56.619Z,0
2019-04-03T04:31:56.393Z,0
2019-04-03T04:32:56.833Z,0
2019-04-03T04:33:57.812Z,0
2019-04-03T04:34:59.429Z,0
2019-04-03T04:35:59.303Z,0
2019-04-03T04:37:02.013Z,0
2019-04-03T04:37:58.852Z,0
2019-04-03T04:38:57.726Z,0
2019-04-03T04:39:57.713Z,0
2019-04-03T04:40:56.649Z,0
2019-04-03T04:41:56.467Z,0
2019-04-03T04:42:56.236Z,0
2019-04-03T04:43:56.487Z,0
2019-04-03T04:44:56.219Z,0
2019-04-03T04:45:56.521Z,0
2019-04-03T04:46:56.326Z,0
2019-04-03T04:47:56.718Z,0
2019-04-03T04:48:58.670Z,0
2019-04-03T04:49:58.169Z,0
2019-04-03T04:50:59.305Z,0
2019-04-03T04:51:59.323Z,0
2019-04-03T04:52:56.654Z,0
2019-04-03T04:53:57.741Z,0
2019-04-03T04:54:56.387Z,0
2019-04-03T04:55:55.875Z,0
2019-04-03T04:56:56.353Z,0
2019-04-03T04:57:56.117Z,0
2019-04-03T04:58:56.199Z,0
2019-04-03T04:59:56.105Z,0
2019-04-03T05:01:00.372Z,0
2019-04-03T05:01:58.609Z,0
2019-04-03T05:03:00.872Z,0
2019-04-03T05:03:58.351Z,0
2019-04-03T05:04:58.664Z,0
2019-04-03T05:05:58.202Z,0
2019-04-03T05:06:56.250Z,0
2019-04-03T05:07:56.152Z,0
2019-04-03T05:08:56.389Z,0
2019-04-03T05:09:56.201Z,0
2019-04-03T05:10:58.649Z,0
2019-04-03T05:11:56.096Z,0
2019-04-03T05:12:56.332Z,0
2019-04-03T05:13:56.971Z,0
2019-04-03T05:14:58.216Z,0
2019-04-03T05:15:58.486Z,0
2019-04-03T05:16:58.602Z,0
2019-04-03T05:18:00.144Z,0
2019-04-03T05:19:08.131Z,0
2019-04-03T05:19:58.228Z,0
2019-04-03T05:20:57.735Z,5
2019-04-03T05:21:57.935Z,5
2019-04-03T05:22:58.000Z,5
2019-04-03T05:24:10.089Z,5
2019-04-03T05:24:55.917Z,5
2019-04-03T05:25:55.992Z,5
2019-04-03T05:26:55.964Z,5
2019-04-03T05:27:55.894Z,5
2019-04-03T05:29:09.609Z,5
2019-04-03T05:29:56.112Z,5
2019-04-03T05:30:55.912Z,5
2019-04-03T05:31:55.861Z,5
2019-04-03T05:32:55.952Z,5
2019-04-03T05:33:56.002Z,5
2019-04-03T05:34:56.115Z,5
2019-04-03T05:35:55.944Z,5
2019-04-03T05:36:57.900Z,10
2019-04-03T05:37:58.102Z,10
2019-04-03T05:38:58.670Z,10
2019-04-03T05:39:58.089Z,10
2019-04-03T05:40:58.587Z,10
2019-04-03T05:41:58.343Z,10
2019-04-03T05:42:56.133Z,10
2019-04-03T05:43:55.941Z,10
2019-04-03T05:44:55.522Z,10
2019-04-03T05:45:55.972Z,10
2019-04-03T05:46:58.675Z,10
2019-04-03T05:47:55.963Z,10
2019-04-03T05:48:58.032Z,15
2019-04-03T05:50:01.290Z,15
2019-04-03T05:50:55.892Z,15
2019-04-03T05:51:55.841Z,15
2019-04-03T05:52:55.716Z,15
2019-04-03T05:53:58.839Z,15
2019-04-03T05:54:55.908Z,15
2019-04-03T05:55:55.464Z,15
2019-04-03T05:56:58.922Z,10
2019-04-03T05:57:55.797Z,10
2019-04-03T05:59:08.608Z,10
2019-04-03T06:00:12.205Z,10
2019-04-03T06:01:11.337Z,10
2019-04-03T06:01:56.807Z,10
2019-04-03T06:03:00.434Z,10
2019-04-03T06:03:55.628Z,10
2019-04-03T06:04:56.451Z,10
2019-04-03T06:05:57.519Z,10
2019-04-03T06:06:56.961Z,10
2019-04-03T06:07:58.518Z,10
2019-04-03T06:09:01.537Z,10
2019-04-03T06:10:01.014Z,10
2019-04-03T06:10:55.792Z,10
2019-04-03T06:11:57.513Z,10
2019-04-03T06:12:56.476Z,10
2019-04-03T06:13:58.060Z,10
2019-04-03T06:14:57.967Z,10
2019-04-03T06:15:57.727Z,10
2019-04-03T06:16:58.456Z,10
2019-04-03T06:18:00.448Z,10
2019-04-03T06:18:58.799Z,15
2019-04-03T06:19:55.775Z,15
2019-04-03T06:20:55.335Z,15
2019-04-03T06:21:56.267Z,15
2019-04-03T06:22:57.788Z,15
2019-04-03T06:23:57.751Z,15
2019-04-03T06:24:58.249Z,15
2019-04-03T06:25:55.461Z,15
2019-04-03T06:26:55.463Z,15
2019-04-03T06:27:56.094Z,20
2019-04-03T06:28:57.665Z,20
2019-04-03T06:30:00.156Z,20
2019-04-03T06:30:58.284Z,20
2019-04-03T06:31:55.894Z,20
2019-04-03T06:32:57.487Z,20
2019-04-03T06:33:58.705Z,20
2019-04-03T06:34:55.421Z,20
2019-04-03T06:35:55.917Z,20
2019-04-03T06:36:58.332Z,20
2019-04-03T06:37:57.410Z,20
2019-04-03T06:38:58.158Z,20
2019-04-03T06:39:55.779Z,20
2019-04-03T06:40:55.729Z,20
2019-04-03T06:41:55.350Z,20
2019-04-03T06:42:55.677Z,20
2019-04-03T06:44:01.262Z,20
2019-04-03T06:44:57.993Z,20
2019-04-03T06:45:57.507Z,20
2019-04-03T06:46:58.694Z,20
2019-04-03T06:47:55.302Z,20
2019-04-03T06:48:58.086Z,20
2019-04-03T06:49:55.500Z,20
2019-04-03T06:50:55.419Z,20
2019-04-03T06:51:56.831Z,20
2019-04-03T06:52:57.607Z,20
2019-04-03T06:53:55.456Z,20
2019-04-03T06:54:55.507Z,20
2019-04-03T06:55:54.993Z,20
2019-04-03T06:56:57.633Z,20
2019-04-03T06:57:55.776Z,20
2019-04-03T06:58:55.079Z,20
2019-04-03T06:59:58.165Z,20
2019-04-03T07:00:59.764Z,20
2019-04-03T07:01:58.109Z,20
2019-04-03T07:02:55.336Z,20
2019-04-03T07:03:55.398Z,20
2019-04-03T07:04:55.193Z,20
2019-04-03T07:05:54.923Z,20
2019-04-03T07:06:58.109Z,20
2019-04-03T07:07:55.393Z,20
2019-04-03T07:08:55.448Z,20
2019-04-03T07:09:57.631Z,20
2019-04-03T07:11:04.753Z,20
2019-04-03T07:11:57.181Z,20
2019-04-03T07:12:57.483Z,20
2019-04-03T07:13:58.398Z,20
2019-04-03T07:14:54.852Z,20
2019-04-03T07:15:56.602Z,20
2019-04-03T07:16:55.093Z,20
2019-04-03T07:17:55.112Z,20
2019-04-03T07:18:55.080Z,20
2019-04-03T07:19:55.247Z,20
2019-04-03T07:20:56.908Z,25
2019-04-03T07:21:57.534Z,25
2019-04-03T07:22:55.306Z,25
2019-04-03T07:23:55.526Z,25
2019-04-03T07:24:55.235Z,25
2019-04-03T07:25:55.029Z,25
2019-04-03T07:26:55.353Z,25
2019-04-03T07:27:55.282Z,25
2019-04-03T07:28:55.388Z,25
2019-04-03T07:29:59.187Z,25
2019-04-03T07:30:57.925Z,25
2019-04-03T07:31:57.712Z,25
2019-04-03T07:32:57.683Z,25
2019-04-03T07:33:57.464Z,25
2019-04-03T07:34:54.894Z,25
2019-04-03T07:35:55.211Z,25
2019-04-03T07:36:55.974Z,25
2019-04-03T07:37:57.585Z,25
2019-04-03T07:38:57.836Z,25
2019-04-03T07:39:58.882Z,25
2019-04-03T07:40:57.179Z,25
2019-04-03T07:41:58.302Z,25
2019-04-03T07:42:58.218Z,25
2019-04-03T07:43:55.025Z,25
2019-04-03T07:44:54.913Z,20
2019-04-03T07:45:55.088Z,20
2019-04-03T07:46:57.840Z,20
2019-04-03T07:47:55.191Z,20
2019-04-03T07:48:55.076Z,20
2019-04-03T07:49:54.860Z,20
2019-04-03T07:50:55.055Z,20
2019-04-03T07:51:54.840Z,20
2019-04-03T07:52:57.611Z,20
2019-04-03T07:53:57.695Z,20
2019-04-03T07:54:59.359Z,20
2019-04-03T07:55:57.603Z,20
2019-04-03T07:56:57.299Z,20
2019-04-03T07:57:55.389Z,25
2019-04-03T07:58:55.101Z,25
2019-04-03T07:59:54.784Z,20
2019-04-03T08:00:55.490Z,20
2019-04-03T08:01:55.276Z,20
2019-04-03T08:02:58.357Z,20
2019-04-03T08:03:56.835Z,20
2019-04-03T08:05:00.351Z,20
2019-04-03T08:05:58.353Z,20
2019-04-03T08:06:54.740Z,20
2019-04-03T08:07:54.732Z,25
2019-04-03T08:09:12.863Z,25
2019-04-03T08:09:56.970Z,25
2019-04-03T08:10:55.204Z,25
2019-04-03T08:11:54.971Z,25
2019-04-03T08:12:54.697Z,25
2019-04-03T08:13:54.955Z,25
2019-04-03T08:14:54.899Z,25
2019-04-03T08:15:55.010Z,25
2019-04-03T08:16:59.090Z,20
2019-04-03T08:17:59.884Z,25
2019-04-03T08:18:57.385Z,25
2019-04-03T08:19:59.201Z,25
2019-04-03T08:20:55.082Z,25
2019-04-03T08:21:54.897Z,25
2019-04-03T08:22:54.619Z,25
2019-04-03T08:23:54.776Z,25
2019-04-03T08:24:58.339Z,25
2019-04-03T08:26:01.928Z,25
2019-04-03T08:26:58.322Z,25
2019-04-03T08:27:57.286Z,25
2019-04-03T08:28:54.853Z,25
2019-04-03T08:29:54.682Z,25
2019-04-03T08:30:54.834Z,25
2019-04-03T08:31:58.215Z,25
2019-04-03T08:32:57.584Z,25
2019-04-03T08:33:54.908Z,25
2019-04-03T08:34:54.557Z,25
2019-04-03T08:35:54.814Z,25
2019-04-03T08:36:54.702Z,25
2019-04-03T08:37:54.854Z,25
2019-04-03T08:38:55.596Z,25
2019-04-03T08:40:00.954Z,25
2019-04-03T08:40:57.240Z,25
2019-04-03T08:41:57.715Z,25
2019-04-03T08:42:54.784Z,25
2019-04-03T08:43:54.478Z,25
2019-04-03T08:44:54.683Z,25
2019-04-03T08:45:54.627Z,25
2019-04-03T08:46:54.779Z,25
2019-04-03T08:47:56.170Z,25
2019-04-03T08:48:57.037Z,25
2019-04-03T08:49:57.126Z,25
2019-04-03T08:50:54.589Z,25
2019-04-03T08:51:55.032Z,25
2019-04-03T08:52:54.743Z,30
2019-04-03T08:53:57.231Z,30
2019-04-03T08:54:54.401Z,30
2019-04-03T08:55:59.104Z,30
2019-04-03T08:56:56.838Z,30
2019-04-03T08:57:59.206Z,30
2019-04-03T08:58:56.910Z,30
2019-04-03T08:59:54.601Z,30
2019-04-03T09:00:55.265Z,30
2019-04-03T09:01:56.235Z,30
2019-04-03T09:02:54.097Z,30
2019-04-03T09:03:55.912Z,30
2019-04-03T09:04:57.365Z,30
2019-04-03T09:06:00.502Z,35
2019-04-03T09:06:56.969Z,35
2019-04-03T09:07:58.009Z,35
2019-04-03T09:08:57.147Z,35
2019-04-03T09:09:54.400Z,35
2019-04-03T09:10:54.296Z,35
2019-04-03T09:11:54.076Z,35
2019-04-03T09:12:54.023Z,35
2019-04-03T09:13:56.924Z,35
2019-04-03T09:14:54.937Z,35
2019-04-03T09:15:54.555Z,35
2019-04-03T09:16:54.248Z,35
2019-04-03T09:17:54.049Z,30
2019-04-03T09:18:54.751Z,30
2019-04-03T09:19:56.287Z,30
2019-04-03T09:20:54.222Z,30
2019-04-03T09:21:58.695Z,35
2019-04-03T09:22:56.882Z,30
2019-04-03T09:23:56.575Z,30
2019-04-03T09:24:54.596Z,35
2019-04-03T09:25:54.493Z,35
2019-04-03T09:26:54.359Z,35
2019-04-03T09:27:54.480Z,35
2019-04-03T09:28:54.398Z,40
2019-04-03T09:29:55.477Z,35
2019-04-03T09:30:59.040Z,40
2019-04-03T09:31:59.170Z,40
2019-04-03T09:32:59.457Z,40
2019-04-03T09:33:54.756Z,40
2019-04-03T09:34:53.933Z,40
2019-04-03T09:35:54.294Z,40
2019-04-03T09:36:54.131Z,40
2019-04-03T09:37:55.928Z,40
2019-04-03T09:38:54.360Z,40
2019-04-03T09:39:55.500Z,40
2019-04-03T09:40:57.489Z,40
2019-04-03T09:41:55.737Z,40
2019-04-03T09:42:56.118Z,45
2019-04-03T09:43:56.934Z,45
2019-04-03T09:44:56.169Z,45
2019-04-03T09:45:54.186Z,45
2019-04-03T09:46:54.825Z,45
2019-04-03T09:47:54.106Z,45
2019-04-03T09:48:54.142Z,45
2019-04-03T09:49:54.771Z,45
2019-04-03T09:50:56.746Z,45
2019-04-03T09:51:56.760Z,45
2019-04-03T09:53:04.626Z,45
2019-04-03T09:53:54.051Z,45
2019-04-03T09:54:54.346Z,40
2019-04-03T09:55:53.982Z,40
2019-04-03T09:57:12.444Z,40
2019-04-03T09:57:55.684Z,40
2019-04-03T09:58:56.102Z,40
2019-04-03T09:59:53.961Z,40
2019-04-03T10:00:54.239Z,40
2019-04-03T10:01:56.514Z,35
2019-04-03T10:02:56.735Z,35
2019-04-03T10:03:56.411Z,40
2019-04-03T10:04:53.920Z,40
2019-04-03T10:05:54.317Z,35
2019-04-03T10:06:53.958Z,35
2019-04-03T10:07:54.225Z,35
2019-04-03T10:08:54.279Z,35
2019-04-03T10:09:57.032Z,40
2019-04-03T10:10:56.281Z,40
2019-04-03T10:11:56.474Z,40
2019-04-03T10:13:01.251Z,40
2019-04-03T10:13:54.870Z,35
2019-04-03T10:14:54.123Z,35
2019-04-03T10:15:54.193Z,35
2019-04-03T10:16:54.088Z,35
2019-04-03T10:17:53.835Z,40
2019-04-03T10:18:54.334Z,35
2019-04-03T10:19:55.891Z,35
2019-04-03T10:20:56.477Z,35
2019-04-03T10:21:57.585Z,35
2019-04-03T10:22:56.200Z,35
2019-04-03T10:23:54.045Z,35
2019-04-03T10:24:54.111Z,35
2019-04-03T10:25:55.981Z,40
2019-04-03T10:26:54.051Z,40
2019-04-03T10:27:54.569Z,40
2019-04-03T10:28:56.529Z,40
2019-04-03T10:30:00.725Z,40
2019-04-03T10:30:57.255Z,35
2019-04-03T10:31:55.713Z,45
2019-04-03T10:32:53.990Z,45
2019-04-03T10:33:54.027Z,45
2019-04-03T10:34:53.881Z,45
2019-04-03T10:35:56.257Z,45
2019-04-03T10:36:54.092Z,40
2019-04-03T10:37:56.706Z,35
2019-04-03T10:38:56.233Z,40
2019-04-03T10:39:57.407Z,40
2019-04-03T10:40:55.949Z,35
2019-04-03T10:41:54.107Z,40
2019-04-03T10:42:53.995Z,40
2019-04-03T10:43:53.548Z,40
2019-04-03T10:44:53.864Z,40
2019-04-03T10:45:54.025Z,40
2019-04-03T10:46:56.582Z,40
2019-04-03T10:47:56.283Z,40
2019-04-03T10:48:53.912Z,40
2019-04-03T10:49:53.941Z,40
2019-04-03T10:50:53.998Z,40
2019-04-03T10:51:54.020Z,40
2019-04-03T10:52:57.509Z,40
2019-04-03T10:53:57.063Z,40
2019-04-03T10:54:56.381Z,40
2019-04-03T10:55:53.904Z,40
2019-04-03T10:56:53.470Z,40
2019-04-03T10:57:53.882Z,40
2019-04-03T10:59:09.361Z,40
2019-04-03T11:00:00.169Z,45
2019-04-03T11:00:54.175Z,40
2019-04-03T11:01:53.534Z,40
2019-04-03T11:02:53.597Z,40
2019-04-03T11:03:53.570Z,45
2019-04-03T11:04:53.592Z,45
2019-04-03T11:05:53.828Z,45
2019-04-03T11:06:54.050Z,45
2019-04-03T11:07:53.889Z,45
2019-04-03T11:08:53.784Z,45
2019-04-03T11:09:53.775Z,45
2019-04-03T11:10:53.748Z,45
2019-04-03T11:11:54.258Z,50
2019-04-03T11:12:53.835Z,50
2019-04-03T11:13:53.492Z,50
2019-04-03T11:14:53.771Z,55
2019-04-03T11:15:55.147Z,50
2019-04-03T11:16:56.833Z,50
2019-04-03T11:17:56.263Z,50
2019-04-03T11:19:11.156Z,50
2019-04-03T11:19:54.482Z,50
2019-04-03T11:20:53.745Z,50
2019-04-03T11:21:55.940Z,50
2019-04-03T11:23:11.151Z,50
2019-04-03T11:23:55.209Z,50
2019-04-03T11:24:53.999Z,50
2019-04-03T11:25:56.154Z,50
2019-04-03T11:26:56.315Z,50
2019-04-03T11:27:56.189Z,50
2019-04-03T11:28:53.990Z,55
2019-04-03T11:29:53.867Z,50
2019-04-03T11:31:00.531Z,50
2019-04-03T11:31:53.601Z,50
2019-04-03T11:32:53.783Z,50
2019-04-03T11:33:58.549Z,55
2019-04-03T11:34:58.839Z,55
2019-04-03T11:35:56.430Z,55
2019-04-03T11:36:53.425Z,55
2019-04-03T11:37:53.356Z,55
2019-04-03T11:38:53.784Z,55
2019-04-03T11:40:10.845Z,55
2019-04-03T11:40:57.222Z,55
2019-04-03T11:41:55.501Z,55
2019-04-03T11:42:53.438Z,55
2019-04-03T11:43:54.165Z,55
2019-04-03T11:44:53.660Z,55
2019-04-03T11:45:53.634Z,55
2019-04-03T11:46:53.563Z,55
2019-04-03T11:47:56.022Z,55
2019-04-03T11:48:55.630Z,55
2019-04-03T11:49:56.970Z,55
2019-04-03T11:50:56.563Z,60
2019-04-03T11:51:54.088Z,55
2019-04-03T11:52:56.392Z,55
2019-04-03T11:53:55.751Z,55
2019-04-03T11:54:55.371Z,55
2019-04-03T11:55:53.612Z,55
2019-04-03T11:56:58.834Z,55
2019-04-03T11:57:56.412Z,55
2019-04-03T11:58:56.674Z,55
2019-04-03T11:59:59.968Z,55
2019-04-03T12:00:53.594Z,60
2019-04-03T12:01:53.599Z,60
2019-04-03T12:02:54.723Z,60
2019-04-03T12:03:56.086Z,60
2019-04-03T12:04:54.861Z,60
2019-04-03T12:05:55.299Z,60
2019-04-03T12:06:56.430Z,60
2019-04-03T12:07:55.444Z,60
2019-04-03T12:08:55.605Z,65
2019-04-03T12:09:53.456Z,65
2019-04-03T12:10:53.388Z,65
2019-04-03T12:11:54.912Z,65
2019-04-03T12:12:53.715Z,60
2019-04-03T12:13:55.600Z,60
2019-04-03T12:14:56.479Z,60
2019-04-03T12:15:58.039Z,60
2019-04-03T12:16:53.627Z,60
2019-04-03T12:17:53.522Z,60
2019-04-03T12:18:53.268Z,65
2019-04-03T12:19:55.936Z,65
2019-04-03T12:20:57.124Z,60
2019-04-03T12:21:55.505Z,60
2019-04-03T12:22:56.323Z,60
2019-04-03T12:23:53.360Z,60
2019-04-03T12:24:53.420Z,60
2019-04-03T12:25:53.937Z,55
2019-04-03T12:26:58.196Z,55
2019-04-03T12:27:56.053Z,55
2019-04-03T12:28:56.360Z,55
2019-04-03T12:29:56.592Z,55
2019-04-03T12:30:53.228Z,55
2019-04-03T12:31:53.731Z,55
2019-04-03T12:32:58.491Z,55
2019-04-03T12:34:11.973Z,55
2019-04-03T12:34:53.615Z,55
2019-04-03T12:35:53.369Z,55
2019-04-03T12:36:56.277Z,55
2019-04-03T12:37:54.724Z,55
2019-04-03T12:38:55.333Z,55
2019-04-03T12:39:53.105Z,55
2019-04-03T12:40:53.429Z,55
2019-04-03T12:41:54.085Z,55
2019-04-03T12:42:53.289Z,55
2019-04-03T12:43:55.448Z,55
2019-04-03T12:44:56.457Z,55
2019-04-03T12:45:53.582Z,55
2019-04-03T12:46:53.884Z,60
2019-04-03T12:47:54.664Z,60
2019-04-03T12:48:55.715Z,60
2019-04-03T12:49:56.601Z,60
2019-04-03T12:50:53.316Z,60
2019-04-03T12:51:53.572Z,60
2019-04-03T12:52:54.445Z,60
2019-04-03T12:53:55.893Z,65
2019-04-03T12:54:58.851Z,65
2019-04-03T12:55:54.195Z,65
2019-04-03T12:56:54.662Z,65
2019-04-03T12:57:53.598Z,65
2019-04-03T12:58:53.288Z,65
2019-04-03T12:59:55.694Z,65
2019-04-03T13:00:55.911Z,65
2019-04-03T13:01:56.282Z,65
2019-04-03T13:02:56.739Z,65
2019-04-03T13:03:55.934Z,70
2019-04-03T13:04:53.178Z,70
2019-04-03T13:05:55.461Z,70
2019-04-03T13:06:53.369Z,70
2019-04-03T13:07:56.009Z,70
2019-04-03T13:08:53.847Z,70
2019-04-03T13:09:52.567Z,70
2019-04-03T13:10:57.352Z,70
2019-04-03T13:11:55.092Z,70
2019-04-03T13:12:55.816Z,70
2019-04-03T13:13:52.884Z,70
2019-04-03T13:14:54.255Z,75
2019-04-03T13:15:53.575Z,75
2019-04-03T13:16:56.387Z,75
2019-04-03T13:17:53.919Z,75
2019-04-03T13:18:53.395Z,75
2019-04-03T13:19:53.186Z,75
2019-04-03T13:20:53.188Z,75
2019-04-03T13:21:53.200Z,75
2019-04-03T13:22:53.337Z,75
2019-04-03T13:23:55.754Z,75
2019-04-03T13:24:55.656Z,80
2019-04-03T13:25:55.157Z,75
2019-04-03T13:26:53.073Z,70
2019-04-03T13:27:54.551Z,70
2019-04-03T13:28:52.950Z,70
2019-04-03T13:29:53.431Z,70
2019-04-03T13:30:54.546Z,65
2019-04-03T13:31:56.160Z,65
2019-04-03T13:33:11.438Z,65
2019-04-03T13:33:52.690Z,75
2019-04-03T13:34:53.177Z,70
2019-04-03T13:35:54.407Z,70
2019-04-03T13:36:55.715Z,70
2019-04-03T13:37:53.088Z,75
2019-04-03T13:38:56.042Z,75
2019-04-03T13:39:53.170Z,75
2019-04-03T13:40:53.287Z,75
2019-04-03T13:41:53.266Z,75
2019-04-03T13:42:55.401Z,75
2019-04-03T13:43:55.495Z,80
2019-04-03T13:44:52.109Z,80
2019-04-03T13:45:53.677Z,80
2019-04-03T13:46:55.339Z,80
2019-04-03T13:47:56.883Z,80
2019-04-03T13:48:55.460Z,80
2019-04-03T13:49:56.843Z,75
2019-04-03T13:50:59.121Z,75
2019-04-03T13:51:52.769Z,80
2019-04-03T13:52:58.503Z,80
2019-04-03T13:53:55.208Z,80
2019-04-03T13:54:55.254Z,80
2019-04-03T13:55:52.776Z,80
2019-04-03T13:56:56.031Z,75
2019-04-03T13:57:56.250Z,75
2019-04-03T13:58:56.883Z,75
2019-04-03T13:59:53.040Z,75
2019-04-03T14:01:11.753Z,75
2019-04-03T14:01:52.571Z,75
2019-04-03T14:02:59.286Z,75
2019-04-03T14:03:54.708Z,70
2019-04-03T14:04:58.664Z,70
2019-04-03T14:05:53.777Z,70
2019-04-03T14:06:53.063Z,70
2019-04-03T14:07:53.048Z,75
2019-04-03T14:08:54.754Z,75
2019-04-03T14:10:01.149Z,75
2019-04-03T14:10:52.217Z,75
2019-04-03T14:11:52.983Z,80
2019-04-03T14:12:54.598Z,80
2019-04-03T14:13:54.173Z,80
2019-04-03T14:14:56.329Z,80
2019-04-03T14:15:54.567Z,80
2019-04-03T14:16:52.579Z,80
2019-04-03T14:18:07.742Z,75
2019-04-03T14:18:55.416Z,75
2019-04-03T14:19:59.589Z,75
2019-04-03T14:20:58.155Z,75
2019-04-03T14:21:52.543Z,70
2019-04-03T14:22:52.319Z,70
2019-04-03T14:23:52.400Z,75
2019-04-03T14:24:59.644Z,80
2019-04-03T14:26:07.948Z,85
2019-04-03T14:26:55.998Z,85
2019-04-03T14:27:52.546Z,85